createdAt,value
2023-01-11T00:01:50.385Z,8.57
2023-01-11T00:06:54.657Z,5.22
2023-01-11T00:12:00.115Z,10.35
2023-01-11T00:17:04.088Z,17.55
2023-01-11T00:22:09.098Z,10.95
2023-01-11T00:27:14.534Z,12.20
2023-01-11T00:32:18.702Z,15.13
2023-01-11T00:37:23.223Z,15.60
2023-01-11T00:42:45.783Z,15.50
2023-01-11T00:47:58.689Z,11.85
2023-01-11T00:53:03.409Z,13.57
2023-01-11T00:58:09.857Z,14.98
2023-01-11T01:03:14.689Z,14.05
2023-01-11T01:08:18.625Z,10.77
2023-01-11T01:13:41.063Z,10.02
2023-01-11T01:18:45.118Z,7.72
2023-01-11T01:23:49.112Z,16.50
2023-01-11T01:28:54.799Z,20.27
2023-01-11T01:33:59.255Z,9.32
2023-01-11T01:39:04.196Z,9.82
2023-01-11T01:44:41.052Z,6.90
2023-01-11T01:49:47.046Z,14.23
2023-01-11T01:54:51.226Z,8.85
2023-01-11T01:59:59.715Z,6.90
2023-01-11T02:05:07.025Z,7.57
2023-01-11T02:10:14.246Z,14.07
2023-01-11T02:15:20.467Z,7.38
2023-01-11T02:20:54.336Z,8.13
2023-01-11T02:26:32.945Z,8.25
2023-01-11T02:31:46.290Z,9.52
2023-01-11T02:37:04.940Z,13.05
2023-01-11T02:42:31.548Z,14.48
2023-01-11T02:47:42.864Z,13.32
2023-01-11T02:52:56.989Z,8.10
2023-01-11T02:58:04.151Z,5.43
2023-01-11T03:03:13.794Z,5.63
2023-01-11T03:08:32.303Z,5.70
2023-01-11T03:13:50.035Z,6.85
2023-01-11T03:19:08.491Z,5.40
2023-01-11T03:24:20.341Z,4.00
2023-01-11T03:29:32.216Z,3.65
2023-01-11T03:34:44.408Z,6.22
2023-01-11T03:39:53.669Z,8.45
2023-01-11T03:44:59.764Z,5.82
2023-01-11T03:50:12.105Z,5.88
2023-01-11T03:55:18.718Z,6.85
2023-01-11T04:00:24.230Z,6.07
2023-01-11T04:05:30.291Z,5.28
2023-01-11T04:10:34.302Z,9.55
2023-01-11T04:15:38.713Z,4.97
2023-01-11T04:20:44.379Z,5.40
2023-01-11T04:25:48.607Z,10.77
2023-01-11T04:30:53.009Z,13.02
2023-01-11T04:35:58.360Z,9.13
2023-01-11T04:41:22.727Z,7.68
2023-01-11T04:46:27.554Z,9.48
2023-01-11T04:51:33.072Z,12.27
2023-01-11T04:56:37.432Z,13.30
2023-01-11T05:01:41.540Z,17.10
2023-01-11T05:06:48.242Z,48.90
2023-01-11T05:11:52.382Z,54.95
2023-01-11T05:16:56.815Z,53.65
2023-01-11T05:22:02.241Z,36.45
2023-01-11T05:27:07.428Z,15.30
2023-01-11T05:32:12.827Z,13.25
2023-01-11T05:37:18.245Z,15.35
2023-01-11T05:42:23.009Z,35.97
2023-01-11T05:47:27.569Z,27.13
2023-01-11T05:52:33.352Z,24.77
2023-01-11T05:57:37.798Z,146.85
2023-01-11T06:02:42.105Z,64.55
2023-01-11T06:07:47.897Z,26.30
2023-01-11T06:13:16.257Z,50.47
2023-01-11T06:18:20.344Z,50.95
2023-01-11T06:23:27.063Z,49.42
2023-01-11T06:28:31.161Z,90.63
2023-01-11T06:33:35.521Z,92.70
2023-01-11T06:38:41.985Z,65.20
2023-01-11T06:43:46.940Z,73.18
2023-01-11T06:48:51.313Z,59.72
2023-01-11T06:53:59.917Z,54.75
2023-01-11T06:59:03.896Z,46.10
2023-01-11T07:04:08.233Z,38.33
2023-01-11T07:09:13.940Z,20.00
2023-01-11T07:14:20.338Z,19.48
2023-01-11T07:19:24.567Z,20.10
2023-01-11T07:24:30.466Z,18.75
2023-01-11T07:29:34.823Z,18.13
2023-01-11T07:34:39.397Z,19.77
2023-01-11T07:39:45.090Z,16.33
2023-01-11T07:44:49.458Z,12.30
2023-01-11T07:49:53.826Z,11.45
2023-01-11T07:55:03.008Z,11.52
2023-01-11T08:05:15.886Z,10.20
2023-01-11T08:10:21.401Z,13.32
2023-01-11T08:15:26.062Z,10.70
2023-01-11T08:20:30.161Z,8.23
2023-01-11T08:25:36.548Z,13.15
2023-01-11T08:30:44.253Z,27.50
2023-01-11T08:35:49.350Z,21.95
2023-01-11T08:40:55.303Z,25.00
2023-01-11T08:46:00.273Z,26.52
2023-01-11T08:51:04.559Z,28.83
2023-01-11T08:56:10.927Z,18.90
2023-01-11T09:01:15.018Z,20.55
2023-01-11T09:06:20.209Z,16.23
2023-01-11T09:11:43.062Z,11.35
2023-01-11T09:16:50.358Z,14.43
2023-01-11T09:21:57.964Z,17.88
2023-01-11T09:27:05.078Z,19.90
2023-01-11T09:32:09.419Z,16.63
2023-01-11T09:37:14.468Z,15.40
2023-01-11T09:42:43.091Z,14.85
2023-01-11T09:47:51.950Z,18.80
2023-01-11T09:53:00.423Z,22.80
2023-01-11T09:58:36.522Z,25.23
2023-01-11T10:04:06.180Z,27.58
2023-01-11T10:18:25.789Z,31.08
2023-01-11T10:20:31.034Z,40.67
2023-01-11T10:25:44.640Z,31.80
2023-01-11T10:31:07.923Z,51.35
2023-01-11T10:36:34.729Z,40.60
2023-01-11T10:41:52.589Z,37.60
2023-01-11T10:47:00.855Z,47.13
2023-01-11T10:52:16.215Z,33.53
2023-01-11T10:57:59.323Z,31.60
2023-01-11T11:03:39.287Z,24.95
2023-01-11T11:08:51.145Z,33.45
2023-01-11T11:14:01.877Z,29.77
2023-01-11T11:19:14.115Z,24.67
2023-01-11T11:24:24.253Z,30.48
2023-01-11T11:29:30.831Z,37.25
2023-01-11T11:34:37.731Z,33.22
2023-01-11T11:39:42.346Z,24.23
2023-01-11T11:44:46.440Z,20.52
2023-01-11T11:49:52.191Z,23.45
2023-01-11T11:54:59.240Z,14.68
2023-01-11T12:00:07.442Z,18.70
2023-01-11T12:05:13.937Z,12.20
2023-01-11T12:10:21.401Z,13.65
2023-01-11T12:15:27.422Z,12.35
2023-01-11T12:20:39.056Z,11.60
2023-01-11T12:26:03.333Z,17.63
2023-01-11T12:31:14.928Z,5.95
2023-01-11T12:36:32.757Z,15.55
2023-01-11T12:42:00.446Z,13.13
2023-01-11T12:47:39.401Z,11.63
2023-01-11T12:53:00.403Z,19.73
2023-01-11T12:58:09.308Z,14.65
2023-01-11T13:03:35.591Z,6.15
2023-01-11T13:08:56.919Z,6.32
2023-01-11T13:14:22.946Z,6.80
2023-01-11T13:19:34.104Z,5.10
2023-01-11T13:24:41.928Z,12.27
2023-01-11T13:29:49.735Z,18.73
2023-01-11T13:35:00.220Z,9.52
2023-01-11T13:40:16.835Z,16.95
2023-01-11T13:45:26.093Z,16.20
2023-01-11T13:50:33.630Z,23.85
2023-01-11T13:55:46.461Z,14.98
2023-01-11T14:00:57.154Z,15.05
2023-01-11T14:06:20.814Z,12.73
2023-01-11T14:11:38.277Z,13.90
2023-01-11T14:17:00.877Z,12.05
2023-01-11T14:22:15.724Z,21.27
2023-01-11T14:27:45.755Z,18.20
2023-01-11T14:33:23.668Z,25.63
2023-01-11T14:38:47.919Z,16.67
2023-01-11T14:44:19.730Z,17.67
2023-01-11T14:49:41.762Z,28.65
2023-01-11T14:54:49.941Z,36.35
2023-01-11T14:59:55.545Z,42.83
2023-01-11T15:05:11.429Z,38.08
2023-01-11T15:10:42.019Z,22.58
2023-01-11T15:16:05.438Z,30.10
2023-01-11T15:21:19.228Z,35.47
2023-01-11T15:26:26.753Z,48.80
2023-01-11T15:32:04.153Z,35.33
2023-01-11T15:37:36.924Z,46.42
2023-01-11T15:43:10.275Z,29.83
2023-01-11T15:48:36.886Z,51.08
2023-01-11T15:54:12.773Z,26.95
2023-01-11T15:59:57.509Z,30.05
2023-01-11T16:05:17.671Z,22.75
2023-01-11T16:10:53.937Z,17.15
2023-01-11T16:16:07.926Z,28.25
2023-01-11T16:21:22.311Z,25.25
2023-01-11T16:26:27.202Z,23.60
2023-01-11T16:31:55.005Z,33.90
2023-01-11T16:37:02.953Z,28.13
2023-01-11T16:42:11.224Z,31.30
2023-01-11T16:47:19.404Z,28.40
2023-01-11T16:52:55.200Z,20.88
2023-01-11T16:58:01.552Z,37.03
2023-01-11T17:03:31.124Z,36.30
2023-01-11T17:08:40.757Z,54.67
2023-01-11T17:14:24.321Z,49.22
2023-01-11T17:19:32.543Z,33.22
2023-01-11T17:24:42.918Z,59.28
2023-01-11T17:29:48.403Z,35.75
2023-01-11T17:34:54.013Z,21.63
2023-01-11T17:40:00.456Z,21.67
2023-01-11T17:45:20.623Z,15.85
2023-01-11T17:50:31.444Z,29.73
2023-01-11T17:55:37.200Z,80.85
2023-01-11T18:00:43.685Z,89.78
2023-01-11T18:05:51.576Z,26.80
2023-01-11T18:10:58.422Z,30.88
2023-01-11T18:16:03.947Z,72.38
2023-01-11T18:21:42.257Z,37.95
2023-01-11T18:26:50.452Z,53.33
2023-01-11T18:31:57.668Z,48.03
2023-01-11T18:37:03.251Z,46.72
2023-01-11T18:42:09.536Z,39.70
2023-01-11T18:47:19.884Z,37.08
2023-01-11T18:52:28.298Z,71.70
2023-01-11T18:57:37.799Z,58.20
2023-01-11T19:07:48.748Z,36.97
2023-01-11T19:12:55.349Z,47.75
2023-01-11T19:23:10.144Z,78.53
2023-01-11T19:28:15.781Z,32.45
2023-01-11T19:33:20.968Z,45.92
2023-01-11T19:38:25.614Z,46.42
2023-01-11T19:43:32.146Z,36.58
2023-01-11T19:48:36.240Z,35.63
2023-01-11T19:53:41.256Z,49.83
2023-01-11T19:58:47.820Z,47.25
2023-01-11T20:03:54.304Z,24.73
2023-01-11T20:08:58.492Z,47.10
2023-01-11T20:14:06.687Z,52.90
2023-01-11T20:19:12.797Z,53.22
2023-01-11T20:24:18.129Z,90.00
2023-01-11T20:29:24.345Z,129.00
2023-01-11T20:34:29.011Z,126.75
2023-01-11T20:39:33.167Z,58.03
2023-01-11T20:44:42.753Z,70.18
2023-01-11T20:49:47.269Z,67.35
2023-01-11T20:54:51.690Z,63.78
2023-01-11T20:59:57.807Z,73.55
2023-01-11T21:05:05.523Z,62.17
2023-01-11T21:10:11.221Z,46.40
2023-01-11T21:15:18.111Z,22.42
2023-01-11T21:20:22.466Z,16.70
2023-01-11T21:25:26.777Z,15.80
2023-01-11T21:30:33.530Z,26.40
2023-01-11T21:35:37.659Z,30.63
2023-01-11T21:40:41.687Z,28.80
2023-01-11T21:45:55.754Z,28.10
2023-01-11T21:51:00.688Z,16.98
2023-01-11T21:56:08.120Z,16.92
2023-01-11T22:01:15.352Z,11.02
2023-01-11T22:06:19.726Z,13.73
2023-01-11T22:11:23.829Z,50.40
2023-01-11T22:16:30.081Z,117.05
2023-01-11T22:21:35.738Z,23.63
2023-01-11T22:26:39.945Z,17.13
2023-01-11T22:31:49.085Z,23.48
2023-01-11T22:36:54.518Z,20.95
2023-01-11T22:41:59.368Z,45.35
2023-01-11T22:47:05.252Z,57.92
2023-01-11T22:52:10.328Z,24.52
2023-01-11T22:57:14.772Z,15.15
2023-01-11T23:02:20.226Z,25.60
2023-01-11T23:07:24.639Z,24.80
2023-01-11T23:12:46.395Z,30.90
2023-01-11T23:17:51.727Z,26.45
2023-01-11T23:22:55.618Z,22.50
2023-01-11T23:28:00.023Z,26.73
2023-01-11T23:33:05.489Z,21.48
2023-01-11T23:38:09.443Z,26.40
2023-01-11T23:43:13.378Z,20.83
2023-01-11T23:48:19.097Z,24.92
2023-01-11T23:53:23.275Z,19.17
2023-01-11T23:58:27.338Z,18.92
